Rochelle, Illinois
Current Conditions -  °F | °C
As of 4:35 AM on Thursday 27 Nov 2014 (Local Time) from KRPJ Reporting Station
Overcast Overcast  
Wind Chill: 10°   Ceiling: 10000
Heat Index: 21°   Visibility: 7mi
Dew Point: 18°   Wind: 9mph
Humidity: 89%   Direction: 300°WNW
Pressure: 30.29"   Gusts: NA
Location:  41.93°N, 89.07°W
Report Text: KRPJ 271035Z AUTO 30008KT 7SM SCT044 OVC100 M06/M08 A3029 RMK AO2 T10621077
Loading
Personal Weather Stations






























Interactive Weather Map New forecast layout! Learn more

10-Day Weather Forecast

Advertisements
Track Severe Weather on mobile